Time;durP1;ratioP1;P1;durP2;ratioP2;P2;SDS_P1;SDS_P2;PMS_P1;PMS_P2;Temp;Humidity;BMP_temperature;BMP_pressure;BME280_temperature;BME280_humidity;BME280_pressure;Samples;Min_cycle;Max_cycle;Signal;HPM_P1;HPM_P2
2023/08/03 00:01:04;;;;;;;3.75;1.75;;;;;;;22.01;60.63;98121.62;4331131;33;34132;-84
2023/08/03 00:03:32;;;;;;;5.35;1.80;;;;;;;22.05;60.49;98120.56;4330798;33;33476;-85
2023/08/03 00:06:00;;;;;;;2.78;1.33;;;;;;;22.05;60.40;98115.31;4329989;33;34138;-84
2023/08/03 00:08:28;;;;;;;3.17;1.30;;;;;;;22.02;60.88;98113.66;4328763;33;33567;-85
2023/08/03 00:10:56;;;;;;;4.60;1.70;;;;;;;22.01;60.76;98111.97;4329516;33;34271;-86
2023/08/03 00:13:25;;;;;;;4.20;1.33;;;;;;;21.92;61.28;98114.19;4291039;33;33568;-84
2023/08/03 00:15:53;;;;;;;3.42;1.42;;;;;;;21.93;61.07;98110.59;4315250;33;33348;-86
2023/08/03 00:18:21;;;;;;;5.05;1.77;;;;;;;21.91;61.08;98112.50;4328826;33;33680;-84
2023/08/03 00:20:50;;;;;;;5.45;1.67;;;;;;;21.86;61.10;98110.09;4329151;33;33879;-84
2023/08/03 00:23:18;;;;;;;4.57;1.70;;;;;;;22.11;60.32;98107.06;4328828;33;34595;-83
2023/08/03 00:25:46;;;;;;;3.60;1.60;;;;;;;22.06;60.49;98117.00;4328336;33;33116;-85
2023/08/03 00:28:13;;;;;;;7.75;2.15;;;;;;;21.94;60.85;98118.47;4328604;33;34276;-83
2023/08/03 00:30:41;;;;;;;3.87;1.80;;;;;;;21.93;60.86;98126.44;4328926;33;34257;-83
2023/08/03 00:33:09;;;;;;;3.50;1.52;;;;;;;21.88;60.93;98121.41;4328191;33;34973;-85
2023/08/03 00:35:37;;;;;;;5.50;2.20;;;;;;;21.97;60.39;98123.59;4339085;33;33907;-84
2023/08/03 00:38:05;;;;;;;4.80;1.90;;;;;;;21.85;61.02;98126.81;4336434;33;33594;-85
2023/08/03 00:40:34;;;;;;;5.95;2.50;;;;;;;21.83;60.95;98118.16;4334544;33;33701;-83
2023/08/03 00:43:04;;;;;;;4.75;2.25;;;;;;;21.82;61.15;98126.97;4338503;33;33459;-83
2023/08/03 00:45:31;;;;;;;7.82;3.40;;;;;;;21.76;61.50;98125.50;4336328;33;34645;-82
2023/08/03 00:48:00;;;;;;;5.78;2.10;;;;;;;21.75;61.51;98118.53;4338717;33;33724;-84
2023/08/03 00:50:30;;;;;;;6.28;2.67;;;;;;;21.76;61.18;98122.88;4314029;33;34009;-85
2023/08/03 00:52:58;;;;;;;5.43;2.40;;;;;;;21.81;61.24;98117.34;4312710;33;33905;-84
2023/08/03 00:55:27;;;;;;;4.80;2.20;;;;;;;21.79;61.26;98113.97;4324932;33;33438;-83
2023/08/03 00:57:54;;;;;;;6.03;2.72;;;;;;;21.76;61.44;98129.94;4322206;33;33909;-85
2023/08/03 01:00:22;;;;;;;6.85;2.30;;;;;;;21.71;61.61;98132.81;4333854;33;34036;-84
2023/08/03 01:02:50;;;;;;;7.03;3.17;;;;;;;21.57;62.34;98129.97;4333916;33;34850;-84
2023/08/03 01:05:18;;;;;;;5.30;2.17;;;;;;;21.62;61.96;98138.50;4317838;33;34257;-84
2023/08/03 01:07:46;;;;;;;6.78;3.20;;;;;;;21.56;62.38;98144.94;4335345;33;33832;-84
2023/08/03 01:10:15;;;;;;;5.93;2.60;;;;;;;21.61;62.33;98137.66;4330094;33;36402;-84
2023/08/03 01:12:42;;;;;;;5.68;2.62;;;;;;;21.68;61.94;98132.94;4332340;33;35402;-83
2023/08/03 01:15:10;;;;;;;5.32;2.62;;;;;;;21.74;61.44;98130.00;4320899;33;33092;-85
2023/08/03 01:17:37;;;;;;;5.20;2.55;;;;;;;21.59;62.09;98131.63;4323418;33;32467;-83
2023/08/03 01:20:05;;;;;;;6.93;2.58;;;;;;;21.69;61.80;98133.78;4336540;33;33719;-83
2023/08/03 01:22:40;;;;;;;5.62;2.60;;;;;;;21.57;62.25;98129.97;4338105;33;34693;-84
2023/08/03 01:25:09;;;;;;;6.87;2.72;;;;;;;21.69;61.93;98120.59;4323713;33;33714;-84
2023/08/03 01:27:36;;;;;;;6.15;2.75;;;;;;;21.74;61.66;98122.06;4320134;33;34524;-85
2023/08/03 01:30:05;;;;;;;5.03;2.45;;;;;;;21.53;62.37;98124.00;4336773;33;34144;-83
2023/08/03 01:32:32;;;;;;;6.30;2.90;;;;;;;21.46;62.88;98116.44;4334396;33;33873;-84
2023/08/03 01:35:00;;;;;;;6.87;2.50;;;;;;;21.48;62.89;98117.22;4335568;33;33128;-83
2023/08/03 01:37:27;;;;;;;6.45;2.80;;;;;;;21.48;62.69;98118.09;4305332;33;33679;-85
2023/08/03 01:39:55;;;;;;;6.30;2.50;;;;;;;21.51;62.77;98115.28;4334555;33;33873;-84
2023/08/03 01:42:23;;;;;;;5.03;2.40;;;;;;;21.24;63.70;98121.84;4333776;33;33486;-85
2023/08/03 01:44:50;;;;;;;6.35;2.70;;;;;;;21.25;63.82;98120.91;4331631;33;33133;-84
2023/08/03 01:47:18;;;;;;;5.40;2.58;;;;;;;21.30;63.57;98111.88;4330086;33;33938;-84
2023/08/03 01:49:45;;;;;;;6.43;2.35;;;;;;;21.41;63.11;98113.19;4330124;33;34609;-85
2023/08/03 01:52:13;;;;;;;5.22;2.30;;;;;;;21.68;62.27;98101.28;4333147;33;33748;-84
2023/08/03 01:54:42;;;;;;;4.32;2.30;;;;;;;21.43;63.03;98093.72;4329418;33;34430;-84
2023/08/03 01:57:10;;;;;;;4.87;2.47;;;;;;;21.31;63.69;98091.62;4325171;33;33646;-84
2023/08/03 01:59:37;;;;;;;9.20;2.60;;;;;;;21.33;63.66;98084.56;4331730;33;33753;-83
2023/08/03 02:02:05;;;;;;;6.53;2.40;;;;;;;21.28;63.92;98082.09;4327104;33;33930;-83
2023/08/03 02:04:33;;;;;;;5.62;2.78;;;;;;;21.32;63.66;98083.66;4329938;33;33274;-84
2023/08/03 02:07:08;;;;;;;7.10;3.20;;;;;;;21.14;64.23;98095.94;4324680;33;34643;-84
2023/08/03 02:09:36;;;;;;;4.82;2.62;;;;;;;21.16;64.45;98095.00;4328985;33;35160;-83
2023/08/03 02:12:04;;;;;;;5.97;2.80;;;;;;;21.18;64.20;98101.91;4328605;33;33861;-84
2023/08/03 02:14:31;;;;;;;6.18;3.05;;;;;;;21.18;64.27;98093.16;4333865;33;33897;-84
2023/08/03 02:16:59;;;;;;;7.32;3.00;;;;;;;21.15;64.46;98104.69;4333824;33;34845;-83
2023/08/03 02:19:27;;;;;;;7.12;3.05;;;;;;;21.08;64.85;98111.19;4331765;33;35057;-84
2023/08/03 02:21:55;;;;;;;7.15;3.22;;;;;;;21.06;64.96;98113.91;4336823;33;33636;-84
2023/08/03 02:24:22;;;;;;;6.57;3.20;;;;;;;21.05;64.93;98112.16;4336492;33;32672;-85
2023/08/03 02:26:50;;;;;;;10.15;3.15;;;;;;;21.17;64.45;98110.72;4334310;33;34685;-84
2023/08/03 02:29:17;;;;;;;7.85;3.12;;;;;;;21.17;64.65;98105.47;4335315;33;33944;-84
2023/08/03 02:31:45;;;;;;;5.95;2.83;;;;;;;21.10;64.81;98114.56;4332274;33;34127;-83
2023/08/03 02:34:13;;;;;;;5.55;2.97;;;;;;;21.22;64.16;98107.91;4334769;33;33811;-85
2023/08/03 02:36:41;;;;;;;4.97;2.40;;;;;;;21.16;64.41;98118.72;4331574;33;33249;-85
2023/08/03 02:39:08;;;;;;;6.35;2.92;;;;;;;21.21;64.29;98122.00;4334972;33;33565;-85
2023/08/03 02:41:38;;;;;;;5.82;2.80;;;;;;;21.07;64.66;98125.28;4335055;33;33558;-84
2023/08/03 02:44:07;;;;;;;6.65;3.03;;;;;;;21.03;64.69;98123.72;4332510;33;34190;-83
2023/08/03 02:46:35;;;;;;;5.70;2.90;;;;;;;21.18;64.17;98127.44;4335634;33;33396;-85
2023/08/03 02:49:03;;;;;;;8.65;3.25;;;;;;;21.05;64.46;98116.59;4336749;33;34681;-84
2023/08/03 02:51:30;;;;;;;6.70;3.22;;;;;;;20.94;65.03;98122.34;4339110;32;34108;-83
2023/08/03 02:53:58;;;;;;;6.53;3.08;;;;;;;20.80;66.00;98123.00;4334424;33;34115;-84
2023/08/03 02:56:27;;;;;;;6.28;3.10;;;;;;;20.96;65.37;98127.56;4334254;33;33513;-83
2023/08/03 02:58:55;;;;;;;8.88;3.12;;;;;;;20.95;65.67;98123.19;4338516;33;34571;-83
2023/08/03 03:01:24;;;;;;;8.85;3.25;;;;;;;20.95;65.52;98117.91;4332219;33;34229;-84
2023/08/03 03:03:52;;;;;;;6.65;2.90;;;;;;;21.00;65.16;98124.72;4335376;33;33284;-84
2023/08/03 03:06:19;;;;;;;6.28;3.30;;;;;;;20.96;65.40;98117.03;4332217;33;33946;-83
2023/08/03 03:08:47;;;;;;;6.37;3.03;;;;;;;20.76;66.33;98124.06;4340441;33;35356;-84
2023/08/03 03:11:15;;;;;;;4.60;2.60;;;;;;;20.89;65.82;98119.94;4337246;33;33979;-83
2023/08/03 03:13:42;;;;;;;6.85;2.80;;;;;;;20.85;66.22;98118.34;4334836;33;33165;-85
2023/08/03 03:16:11;;;;;;;6.57;3.08;;;;;;;21.17;65.01;98115.16;4337787;33;34760;-84
2023/08/03 03:18:39;;;;;;;5.55;2.70;;;;;;;20.96;65.73;98119.66;4334509;33;35085;-85
2023/08/03 03:21:06;;;;;;;6.20;3.00;;;;;;;20.89;65.83;98117.28;4335806;33;33776;-83
2023/08/03 03:23:34;;;;;;;6.00;2.80;;;;;;;20.79;66.32;98125.69;4337767;33;33486;-83
2023/08/03 03:26:02;;;;;;;5.05;2.75;;;;;;;21.05;65.50;98127.97;4335949;33;34446;-83
2023/08/03 03:28:30;;;;;;;5.07;2.97;;;;;;;20.77;66.70;98130.19;4326471;33;34014;-85
2023/08/03 03:30:57;;;;;;;5.05;2.50;;;;;;;20.76;66.69;98145.12;4341044;33;33853;-85
2023/08/03 03:33:25;;;;;;;5.95;2.92;;;;;;;20.76;66.64;98142.50;4334325;33;33724;-83
2023/08/03 03:35:53;;;;;;;5.12;2.60;;;;;;;20.72;66.86;98140.94;4332827;33;34862;-84
2023/08/03 03:38:20;;;;;;;6.55;3.53;;;;;;;20.88;66.21;98146.34;4334239;33;33849;-84
2023/08/03 03:40:48;;;;;;;5.95;3.10;;;;;;;20.82;66.78;98146.63;4339662;33;34243;-85
2023/08/03 03:43:16;;;;;;;7.40;2.87;;;;;;;21.02;65.70;98148.34;4338986;33;34169;-83
2023/08/03 03:45:44;;;;;;;5.65;2.62;;;;;;;21.14;65.04;98140.75;4335151;33;34789;-85
2023/08/03 03:48:12;;;;;;;5.15;2.60;;;;;;;20.97;65.58;98135.38;4335564;33;34191;-84
2023/08/03 03:50:40;;;;;;;6.05;3.35;;;;;;;20.94;65.87;98139.94;4335564;33;33608;-84
2023/08/03 03:53:08;;;;;;;6.50;3.08;;;;;;;20.88;66.35;98141.94;4336807;33;33711;-84
2023/08/03 03:55:36;;;;;;;6.75;2.95;;;;;;;21.05;65.67;98135.03;4335485;33;33990;-83
2023/08/03 03:58:03;;;;;;;6.15;2.72;;;;;;;20.87;66.49;98139.34;4335600;33;34289;-84
2023/08/03 04:00:33;;;;;;;5.68;2.90;;;;;;;21.07;65.88;98138.47;4335796;33;33696;-83
2023/08/03 04:03:01;;;;;;;5.40;2.78;;;;;;;20.92;66.31;98142.66;4333690;33;34268;-84
2023/08/03 04:05:29;;;;;;;5.90;3.30;;;;;;;21.00;66.19;98123.84;4335187;33;33745;-84
2023/08/03 04:07:56;;;;;;;8.05;3.70;;;;;;;20.98;66.26;98126.53;4334553;33;34183;-85
2023/08/03 04:10:24;;;;;;;9.27;3.90;;;;;;;20.91;67.00;98125.16;4337160;32;34738;-84
2023/08/03 04:12:51;;;;;;;6.22;4.05;;;;;;;20.82;67.65;98131.66;4338105;33;33013;-83
2023/08/03 04:15:19;;;;;;;7.50;4.00;;;;;;;20.85;68.01;98134.16;4335456;33;33797;-84
2023/08/03 04:17:48;;;;;;;7.62;4.12;;;;;;;20.94;67.61;98124.97;4337036;33;33844;-83
2023/08/03 04:20:16;;;;;;;5.00;3.10;;;;;;;21.12;67.01;98133.81;4331920;33;34538;-84
2023/08/03 04:22:45;;;;;;;8.73;5.03;;;;;;;21.17;67.29;98144.16;4317661;33;34326;-83
2023/08/03 04:25:14;;;;;;;11.32;4.45;;;;;;;21.44;66.21;98124.44;4331576;33;34356;-85
2023/08/03 04:27:42;;;;;;;7.20;4.22;;;;;;;21.42;66.19;98133.34;4313612;33;34456;-84
2023/08/03 04:30:11;;;;;;;8.57;4.30;;;;;;;21.39;66.37;98131.69;4331485;33;34778;-84
2023/08/03 04:32:40;;;;;;;6.18;3.83;;;;;;;21.52;66.11;98137.25;4329958;33;33837;-85
2023/08/03 04:35:09;;;;;;;7.65;4.30;;;;;;;21.67;65.42;98128.59;4316695;33;34322;-84
2023/08/03 04:37:37;;;;;;;7.57;4.40;;;;;;;21.87;64.73;98124.97;4325392;33;34167;-84
2023/08/03 04:40:07;;;;;;;7.43;4.43;;;;;;;22.19;63.62;98126.03;4329946;33;35188;-84
2023/08/03 04:42:35;;;;;;;8.88;4.37;;;;;;;22.55;62.30;98119.78;4330979;33;34568;-84
2023/08/03 04:45:03;;;;;;;8.43;4.35;;;;;;;22.90;61.62;98114.41;4316526;33;33836;-85
2023/08/03 04:47:32;;;;;;;7.35;3.80;;;;;;;23.03;60.59;98112.81;4316562;33;34075;-84
2023/08/03 04:49:59;;;;;;;8.40;4.05;;;;;;;23.33;59.93;98117.34;4316439;33;34018;-84
2023/08/03 04:52:27;;;;;;;6.78;3.42;;;;;;;23.21;60.38;98111.81;4325269;33;32826;-85
2023/08/03 04:54:54;;;;;;;11.00;3.50;;;;;;;23.75;58.68;98111.47;4323194;33;33986;-85
2023/08/03 04:57:22;;;;;;;8.48;4.30;;;;;;;23.79;58.23;98111.22;4316568;33;35145;-85
2023/08/03 04:59:50;;;;;;;6.35;3.65;;;;;;;24.35;57.07;98119.37;4317275;33;33812;-84
2023/08/03 05:02:18;;;;;;;6.28;3.55;;;;;;;24.54;56.68;98120.97;4329395;33;33551;-85
2023/08/03 05:04:46;;;;;;;9.40;3.87;;;;;;;24.44;56.44;98113.59;4322432;33;33527;-86
2023/08/03 05:07:15;;;;;;;9.07;3.87;;;;;;;24.76;55.37;98118.72;4331165;33;34153;-85
2023/08/03 05:09:43;;;;;;;6.75;3.58;;;;;;;24.92;54.79;98106.19;4329934;33;34581;-85
2023/08/03 05:12:11;;;;;;;6.50;2.95;;;;;;;24.54;55.60;98116.50;4330416;33;32727;-86
2023/08/03 05:14:39;;;;;;;5.85;2.92;;;;;;;24.84;55.16;98112.94;4329625;33;33374;-84
2023/08/03 05:17:06;;;;;;;6.05;3.40;;;;;;;25.35;54.07;98119.44;4330759;33;34149;-85
2023/08/03 05:19:34;;;;;;;5.90;3.25;;;;;;;25.51;53.91;98121.94;4330337;33;33828;-85
2023/08/03 05:22:01;;;;;;;8.40;3.60;;;;;;;25.91;53.29;98109.63;4330604;33;33486;-86
2023/08/03 05:24:29;;;;;;;6.28;3.30;;;;;;;25.88;52.12;98107.16;4321443;33;34078;-86
2023/08/03 05:26:56;;;;;;;6.45;2.97;;;;;;;25.91;52.45;98116.69;4330857;33;34130;-86
2023/08/03 05:29:25;;;;;;;6.78;2.97;;;;;;;25.88;52.60;98108.97;4336258;33;34486;-85
2023/08/03 05:31:53;;;;;;;7.32;3.40;;;;;;;26.31;52.18;98114.88;4345586;33;33466;-86
2023/08/03 05:34:20;;;;;;;8.90;4.00;;;;;;;26.28;51.65;98115.09;4325729;33;34836;-86
2023/08/03 05:36:51;;;;;;;8.05;3.42;;;;;;;25.60;52.89;98120.50;4327342;33;34790;-86
2023/08/03 05:39:19;;;;;;;8.15;3.30;;;;;;;25.70;53.16;98117.16;4325030;33;34112;-86
2023/08/03 05:41:46;;;;;;;7.53;3.22;;;;;;;25.95;52.86;98115.56;4330517;33;33439;-83
2023/08/03 05:44:15;;;;;;;7.95;3.47;;;;;;;25.24;53.87;98124.56;4303414;33;33917;-86
2023/08/03 05:46:44;;;;;;;4.97;3.05;;;;;;;25.83;52.80;98119.00;4329029;33;33895;-85
2023/08/03 05:49:14;;;;;;;5.97;3.30;;;;;;;26.05;52.62;98116.63;4330465;33;34382;-84
2023/08/03 05:51:42;;;;;;;5.60;3.10;;;;;;;25.80;53.72;98127.19;4330823;33;33244;-85
2023/08/03 05:54:15;;;;;;;6.45;3.35;;;;;;;25.43;54.36;98129.56;4330548;33;33565;-84
2023/08/03 05:56:42;;;;;;;5.47;2.87;;;;;;;25.81;53.72;98121.78;4329750;33;34248;-85
2023/08/03 05:59:19;;;;;;;6.57;3.35;;;;;;;25.82;53.31;98126.13;4329761;33;33698;-85
2023/08/03 06:01:48;;;;;;;6.43;3.72;;;;;;;26.10;53.53;98113.66;4329693;33;34734;-86
2023/08/03 06:04:16;;;;;;;5.65;3.00;;;;;;;26.19;53.08;98129.00;4316823;33;33819;-86
2023/08/03 06:06:47;;;;;;;8.32;3.30;;;;;;;26.15;53.20;98133.66;4317374;33;34769;-86
2023/08/03 06:09:15;;;;;;;9.00;3.22;;;;;;;26.13;53.05;98135.56;4330133;33;34791;-85
2023/08/03 06:11:43;;;;;;;7.32;3.72;;;;;;;25.72;54.06;98136.50;4329951;33;33605;-86
2023/08/03 06:14:12;;;;;;;8.48;3.25;;;;;;;25.86;54.35;98132.94;4330167;33;35179;-84
2023/08/03 06:16:42;;;;;;;7.25;2.92;;;;;;;26.24;53.88;98141.97;4330132;33;35061;-84
2023/08/03 06:19:10;;;;;;;9.20;3.70;;;;;;;26.42;53.54;98135.41;4330194;33;35043;-86
2023/08/03 06:21:38;;;;;;;7.80;3.92;;;;;;;26.25;53.16;98138.34;4329795;33;33554;-85
2023/08/03 06:24:05;;;;;;;10.15;3.62;;;;;;;26.30;53.63;98141.56;4331684;33;33998;-85
2023/08/03 06:26:36;;;;;;;6.78;2.83;;;;;;;26.48;53.93;98136.81;4331789;33;34999;-85
2023/08/03 06:29:05;;;;;;;8.50;3.95;;;;;;;26.44;53.57;98144.13;4332159;33;33658;-85
2023/08/03 06:31:38;;;;;;;6.87;3.70;;;;;;;26.19;53.53;98148.44;4331688;33;33241;-84
2023/08/03 06:34:09;;;;;;;6.68;3.12;;;;;;;26.65;53.16;98161.28;4332181;33;34842;-85
2023/08/03 06:36:37;;;;;;;7.45;3.45;;;;;;;26.67;53.53;98158.53;4331900;33;34848;-86
2023/08/03 06:39:04;;;;;;;6.05;3.10;;;;;;;26.81;52.44;98157.56;4331763;33;34752;-86
2023/08/03 06:41:33;;;;;;;6.60;2.92;;;;;;;26.75;52.88;98158.00;4332087;33;33521;-86
2023/08/03 06:44:01;;;;;;;11.12;3.95;;;;;;;26.71;52.57;98159.16;4332225;33;33869;-86
2023/08/03 06:46:29;;;;;;;7.40;3.55;;;;;;;26.30;54.38;98157.50;4331612;33;34055;-85
2023/08/03 06:48:57;;;;;;;6.95;3.62;;;;;;;26.34;53.57;98165.16;4332004;33;34117;-85
2023/08/03 06:51:24;;;;;;;7.45;3.67;;;;;;;26.15;53.71;98170.84;4331926;33;33401;-85
2023/08/03 06:53:52;;;;;;;8.50;4.15;;;;;;;25.77;54.79;98164.53;4331607;33;33616;-85
2023/08/03 06:56:20;;;;;;;7.82;3.65;;;;;;;25.81;55.03;98166.91;4331684;33;34268;-85
2023/08/03 06:58:47;;;;;;;7.60;3.60;;;;;;;25.54;55.73;98180.16;4331346;33;33601;-85
2023/08/03 07:01:15;;;;;;;5.00;2.92;;;;;;;25.67;55.43;98175.75;4330967;33;33468;-85
2023/08/03 07:03:42;;;;;;;9.02;3.97;;;;;;;25.40;55.76;98185.47;4318302;33;33984;-84
2023/08/03 07:06:10;;;;;;;6.62;3.35;;;;;;;25.15;56.43;98189.66;4318653;33;34249;-86
2023/08/03 07:08:38;;;;;;;6.78;3.83;;;;;;;25.02;56.85;98183.38;4331863;33;33928;-86
2023/08/03 07:11:06;;;;;;;8.45;4.03;;;;;;;25.02;57.30;98194.00;4332135;33;33796;-87
2023/08/03 07:13:33;;;;;;;7.70;4.00;;;;;;;24.48;58.59;98199.88;4342136;33;33525;-85
2023/08/03 07:16:08;;;;;;;10.75;3.70;;;;;;;24.89;57.57;98199.19;4324959;33;34076;-84
2023/08/03 07:18:36;;;;;;;5.75;3.40;;;;;;;24.83;58.06;98206.66;4320880;33;33759;-85
2023/08/03 07:21:05;;;;;;;7.25;3.85;;;;;;;24.78;58.40;98208.75;4326445;33;33368;-86
2023/08/03 07:23:34;;;;;;;6.00;3.53;;;;;;;24.17;59.98;98206.09;4321372;33;34912;-86
2023/08/03 07:26:02;;;;;;;8.90;4.20;;;;;;;24.41;59.64;98211.78;4329899;33;34566;-84
2023/08/03 07:28:30;;;;;;;7.35;4.35;;;;;;;24.65;59.13;98209.47;4331697;33;34492;-85
2023/08/03 07:30:57;;;;;;;7.82;4.00;;;;;;;24.24;60.29;98214.53;4330574;33;34370;-88
2023/08/03 07:33:26;;;;;;;7.97;4.20;;;;;;;24.06;61.38;98218.25;4331056;33;34484;-86
2023/08/03 07:35:54;;;;;;;9.27;4.53;;;;;;;24.12;61.43;98228.47;4317838;33;33406;-86
2023/08/03 07:38:21;;;;;;;6.65;4.35;;;;;;;24.02;61.68;98233.47;4330961;33;33895;-87
2023/08/03 07:40:49;;;;;;;9.23;4.55;;;;;;;24.09;61.83;98232.16;4326784;33;33383;-88
2023/08/03 07:43:16;;;;;;;7.65;4.55;;;;;;;24.23;61.04;98249.91;4330874;33;34360;-87
2023/08/03 07:45:44;;;;;;;7.87;4.10;;;;;;;24.42;60.66;98247.94;4331490;33;34293;-86
2023/08/03 07:48:15;;;;;;;6.90;4.20;;;;;;;24.25;61.20;98251.53;4318570;33;34717;-83
2023/08/03 07:50:42;;;;;;;7.00;4.20;;;;;;;24.50;60.83;98252.78;4325744;33;33428;-85
2023/08/03 07:53:09;;;;;;;5.95;4.18;;;;;;;24.12;61.89;98241.72;4328747;33;33652;-87
2023/08/03 07:55:37;;;;;;;7.90;4.30;;;;;;;24.49;60.54;98249.28;4326820;33;34127;-87
2023/08/03 07:58:05;;;;;;;7.18;4.25;;;;;;;24.01;63.37;98247.63;4330911;33;34173;-87
2023/08/03 08:00:32;;;;;;;8.75;4.30;;;;;;;24.23;62.42;98249.91;4331478;33;33312;-86
2023/08/03 08:03:00;;;;;;;6.60;4.50;;;;;;;24.37;62.54;98259.72;4331077;33;34106;-86
2023/08/03 08:05:27;;;;;;;7.32;4.35;;;;;;;24.60;62.18;98253.94;4324691;33;35426;-86
2023/08/03 08:07:55;;;;;;;9.77;4.50;;;;;;;24.58;61.91;98255.81;4322629;33;33851;-82
2023/08/03 08:10:22;;;;;;;7.00;4.18;;;;;;;24.65;61.95;98254.53;4331091;33;33373;-85
2023/08/03 08:12:51;;;;;;;8.50;4.03;;;;;;;24.96;61.21;98263.28;4331264;33;33512;-84
2023/08/03 08:15:19;;;;;;;7.93;5.25;;;;;;;24.79;61.22;98260.81;4331208;33;34159;-83
2023/08/03 08:17:46;;;;;;;7.32;4.78;;;;;;;24.51;61.91;98262.47;4330996;33;33837;-86
2023/08/03 08:20:14;;;;;;;8.43;4.70;;;;;;;24.27;63.21;98278.78;4330627;33;33430;-87
2023/08/03 08:22:41;;;;;;;7.72;4.75;;;;;;;24.33;63.20;98280.22;4330817;33;33931;-86
2023/08/03 08:25:09;;;;;;;9.48;5.43;;;;;;;24.38;63.00;98288.75;4330315;33;33660;-83
2023/08/03 08:27:37;;;;;;;9.60;5.07;;;;;;;24.18;63.44;98295.19;4330456;33;34602;-84
2023/08/03 08:30:05;;;;;;;7.45;4.87;;;;;;;24.65;62.70;98291.63;4330968;33;34670;-85
2023/08/03 08:32:33;;;;;;;10.68;6.03;;;;;;;24.73;62.18;98294.69;4331332;33;33641;-88
2023/08/03 08:35:01;;;;;;;8.40;5.00;;;;;;;25.06;60.71;98292.78;4331294;33;33845;-87
2023/08/03 08:37:29;;;;;;;9.65;4.90;;;;;;;24.87;62.34;98301.81;4331665;33;34008;-87
2023/08/03 08:39:57;;;;;;;10.57;4.78;;;;;;;25.03;61.36;98293.81;4331064;33;33640;-89
2023/08/03 08:42:29;;;;;;;8.63;4.87;;;;;;;25.59;59.99;98300.13;4330963;33;34260;-90
2023/08/03 08:44:57;;;;;;;8.07;5.28;;;;;;;25.39;59.54;98297.88;4330595;33;34037;-86
2023/08/03 08:47:25;;;;;;;7.35;4.82;;;;;;;24.81;61.19;98296.03;4329269;33;34200;-87
2023/08/03 08:49:52;;;;;;;8.55;4.95;;;;;;;24.81;61.43;98296.03;4330868;33;33602;-88
2023/08/03 08:52:43;;;;;;;10.40;5.18;;;;;;;25.07;61.62;98297.97;4319758;33;33968;-87
2023/08/03 08:55:15;;;;;;;8.57;4.53;;;;;;;25.07;60.56;98313.03;4317713;33;34262;-89
2023/08/03 08:58:03;;;;;;;11.05;5.20;;;;;;;25.29;59.53;98307.34;4319868;33;33555;-88
2023/08/03 09:00:44;;;;;;;7.97;4.75;;;;;;;25.68;58.56;98304.88;4331386;33;32901;-88
2023/08/03 09:03:13;;;;;;;9.30;5.40;;;;;;;25.79;59.79;98306.03;4330418;33;34652;-86
2023/08/03 09:05:41;;;;;;;7.68;5.18;;;;;;;26.02;57.49;98308.06;4320053;33;34601;-87
2023/08/03 09:08:14;;;;;;;11.02;5.30;;;;;;;26.18;58.43;98313.28;4345700;33;33344;-88
2023/08/03 09:10:52;;;;;;;9.57;4.60;;;;;;;26.25;56.44;98303.06;4332370;33;33444;-84
2023/08/03 09:13:28;;;;;;;7.18;4.62;;;;;;;25.99;56.56;98302.97;4317315;33;33962;-86
2023/08/03 09:15:55;;;;;;;;;;;;;;;25.98;57.20;98303.91;4315836;33;33886;-84
2023/08/03 09:18:27;;;;;;;7.12;4.37;;;;;;;26.46;57.23;98298.22;4330772;33;33835;-85
2023/08/03 09:21:14;;;;;;;7.87;4.37;;;;;;;26.36;55.44;98295.25;4317574;33;34317;-86
2023/08/03 09:23:45;;;;;;;8.57;5.07;;;;;;;26.40;56.40;98288.78;4315688;33;33818;-86
2023/08/03 09:26:23;;;;;;;10.65;5.07;;;;;;;26.71;55.41;98297.41;4310052;33;34074;-85
2023/08/03 09:28:53;;;;;;;10.10;5.00;;;;;;;26.88;54.94;98302.47;4326964;33;33806;-85
2023/08/03 09:31:24;;;;;;;8.80;4.60;;;;;;;26.95;54.55;98309.06;4317414;33;33081;-85
2023/08/03 09:33:59;;;;;;;10.63;5.12;;;;;;;26.89;55.47;98323.63;4330857;33;33689;-86
2023/08/03 09:36:27;;;;;;;7.22;4.75;;;;;;;27.11;54.05;98316.87;4330081;33;33911;-87
2023/08/03 09:39:14;;;;;;;8.57;4.37;;;;;;;27.00;53.34;98324.72;4316972;33;32837;-87
2023/08/03 09:41:45;;;;;;;9.30;4.30;;;;;;;27.21;52.98;98323.28;4317972;33;34443;-85
2023/08/03 09:44:16;;;;;;;9.48;5.07;;;;;;;27.06;54.99;98319.84;4326288;33;33638;-84
2023/08/03 09:47:05;;;;;;;9.00;4.60;;;;;;;26.95;53.90;98333.03;4330521;33;35046;-90
2023/08/03 09:49:33;;;;;;;8.15;5.07;;;;;;;27.52;52.61;98321.16;4330689;33;33825;-86
2023/08/03 09:52:05;;;;;;;8.55;5.00;;;;;;;27.30;53.29;98324.47;4330853;33;33066;-84
2023/08/03 09:54:55;;;;;;;9.15;4.35;;;;;;;27.63;51.96;98326.59;4328832;33;33909;-84
2023/08/03 09:57:29;;;;;;;8.23;4.40;;;;;;;27.19;52.37;98332.34;4312966;33;33682;-84
2023/08/03 10:00:01;;;;;;;8.65;4.75;;;;;;;27.23;52.31;98334.66;4312239;33;34015;-84
2023/08/03 10:02:52;;;;;;;8.35;4.45;;;;;;;27.58;52.45;98350.03;4331529;33;33386;-85
2023/08/03 10:05:21;;;;;;;8.60;4.75;;;;;;;27.20;50.54;98345.56;4331228;33;33546;-84
2023/08/03 10:07:59;;;;;;;7.18;4.30;;;;;;;26.99;51.55;98342.50;4318071;33;33633;-84
2023/08/03 10:10:29;;;;;;;6.97;3.65;;;;;;;26.99;51.46;98342.50;4317195;33;34543;-88
2023/08/03 10:13:00;;;;;;;6.95;3.80;;;;;;;27.08;51.10;98341.00;4316549;33;33580;-85
2023/08/03 10:15:29;;;;;;;7.10;4.18;;;;;;;27.37;49.69;98339.06;4317595;33;33935;-85
2023/08/03 10:17:57;;;;;;;8.60;3.95;;;;;;;27.31;50.79;98331.47;4318192;33;34227;-84
2023/08/03 10:20:25;;;;;;;6.10;3.62;;;;;;;27.53;49.51;98331.69;4320634;33;33601;-89
2023/08/03 10:23:11;;;;;;;6.65;3.80;;;;;;;27.20;51.87;98334.91;4345909;33;33277;-86
2023/08/03 10:25:58;;;;;;;10.35;4.07;;;;;;;27.85;48.41;98339.28;4343266;33;33745;-84
2023/08/03 10:28:39;;;;;;;6.45;3.17;;;;;;;27.77;49.13;98344.28;4325333;33;33837;-85
2023/08/03 10:31:14;;;;;;;6.87;3.80;;;;;;;27.43;49.25;98343.97;4316694;33;34533;-86
2023/08/03 10:33:46;;;;;;;5.72;3.08;;;;;;;27.17;49.45;98333.28;4322921;33;33686;-84
2023/08/03 10:36:33;;;;;;;8.48;3.60;;;;;;;27.56;47.59;98342.13;4321911;33;34858;-83
2023/08/03 10:39:12;;;;;;;6.32;3.50;;;;;;;27.72;47.37;98343.72;4318879;33;34210;-83
2023/08/03 10:41:42;;;;;;;8.52;3.85;;;;;;;27.48;49.14;98341.81;4323664;33;33801;-86
2023/08/03 10:44:13;;;;;;;6.75;3.40;;;;;;;27.51;47.43;98338.09;4321202;33;33907;-84
2023/08/03 10:46:40;;;;;;;5.32;2.78;;;;;;;27.47;49.06;98350.78;4324179;33;34315;-83
2023/08/03 10:49:18;;;;;;;5.22;2.70;;;;;;;26.98;46.59;98348.78;4326689;33;34807;-86
2023/08/03 10:51:50;;;;;;;5.95;2.97;;;;;;;27.37;46.87;98337.25;4325068;33;33106;-84
2023/08/03 10:54:31;;;;;;;6.03;2.67;;;;;;;27.70;44.68;98351.00;4328145;33;34163;-85
2023/08/03 10:57:08;;;;;;;5.78;2.65;;;;;;;27.77;43.35;98338.94;4330905;33;34056;-85
2023/08/03 10:59:43;;;;;;;5.93;2.15;;;;;;;28.04;44.89;98349.47;4317820;33;34817;-85
2023/08/03 11:02:21;;;;;;;5.43;2.70;;;;;;;28.02;42.25;98341.56;4317956;33;33842;-84
2023/08/03 11:04:52;;;;;;;3.95;2.12;;;;;;;27.80;42.84;98341.41;4315713;33;92108;-84
2023/08/03 11:07:34;;;;;;;5.82;2.10;;;;;;;28.06;40.98;98340.37;4323493;33;34417;-86
2023/08/03 11:10:04;;;;;;;5.60;2.37;;;;;;;27.99;40.04;98352.44;4317701;33;34314;-86
2023/08/03 11:12:32;;;;;;;4.97;1.80;;;;;;;27.87;40.11;98354.16;4319223;33;33591;-86
2023/08/03 11:15:00;;;;;;;4.50;1.90;;;;;;;27.67;39.89;98360.03;4312287;33;34198;-86
2023/08/03 11:17:29;;;;;;;5.25;1.75;;;;;;;27.60;39.69;98358.75;4303659;33;34049;-85
2023/08/03 11:19:58;;;;;;;4.72;2.15;;;;;;;28.07;40.16;98368.75;4303727;33;34281;-86
2023/08/03 11:22:26;;;;;;;3.83;1.83;;;;;;;28.05;40.24;98376.00;4316856;33;33907;-86
2023/08/03 11:25:02;;;;;;;4.68;2.12;;;;;;;28.03;39.64;98388.56;4317193;33;33164;-87
2023/08/03 11:27:31;;;;;;;4.62;2.00;;;;;;;28.10;41.05;98396.97;4321027;33;34185;-87
2023/08/03 11:30:02;;;;;;;4.55;2.12;;;;;;;27.99;40.39;98394.22;4317341;33;33924;-84
2023/08/03 11:32:33;;;;;;;5.20;1.90;;;;;;;27.80;40.47;98392.84;4325576;33;34365;-87
2023/08/03 11:35:06;;;;;;;5.03;2.00;;;;;;;27.54;39.95;98402.66;4331519;33;33318;-85
2023/08/03 11:37:35;;;;;;;4.95;2.00;;;;;;;27.57;40.72;98409.56;4331410;33;34230;-87
2023/08/03 11:40:05;;;;;;;4.03;2.20;;;;;;;27.69;40.22;98410.50;4331405;33;34206;-87
2023/08/03 11:42:37;;;;;;;5.78;2.30;;;;;;;27.55;40.27;98415.00;4331558;33;34746;-87
2023/08/03 11:45:05;;;;;;;4.85;2.35;;;;;;;27.53;42.20;98416.91;4346499;33;33569;-86